createdAt,value
2022-08-21T00:02:18.217Z,81.90
2022-08-21T00:04:48.278Z,92.90
2022-08-21T00:07:25.322Z,87.30
2022-08-21T00:09:52.826Z,92.70
2022-08-21T00:14:47.036Z,93.20
2022-08-21T00:22:08.328Z,92.60
2022-08-21T00:29:29.521Z,93.00
2022-08-21T00:31:56.216Z,89.30
2022-08-21T00:34:22.959Z,92.80
2022-08-21T00:36:49.700Z,93.10
2022-08-21T00:41:43.966Z,84.00
2022-08-21T00:44:13.840Z,84.30
2022-08-21T00:46:42.769Z,93.20
2022-08-21T00:49:12.752Z,86.60
2022-08-21T00:51:53.089Z,91.70
2022-08-21T00:54:23.419Z,84.40
2022-08-21T00:56:54.284Z,93.50
2022-08-21T00:59:23.060Z,93.70
2022-08-21T01:01:50.811Z,93.50
2022-08-21T01:04:17.931Z,92.80
2022-08-21T01:06:47.408Z,85.10
2022-08-21T01:09:14.911Z,85.10
2022-08-21T01:11:43.878Z,94.20
2022-08-21T01:14:13.092Z,93.60
2022-08-21T01:16:43.822Z,92.90
2022-08-21T01:19:11.885Z,93.60
2022-08-21T01:21:39.095Z,93.70
2022-08-21T01:24:06.866Z,93.90
2022-08-21T01:26:36.530Z,94.00
2022-08-21T01:29:06.731Z,92.60
2022-08-21T01:31:35.274Z,85.60
2022-08-21T01:34:02.060Z,91.30
2022-08-21T01:36:29.250Z,94.10
2022-08-21T01:38:56.938Z,92.80
2022-08-21T01:46:18.119Z,94.10
2022-08-21T01:48:44.954Z,91.00
2022-08-21T01:51:12.647Z,94.20
2022-08-21T01:56:12.246Z,85.60
2022-08-21T01:58:41.950Z,91.70
2022-08-21T02:01:10.329Z,94.40
2022-08-21T02:03:37.979Z,85.30
2022-08-21T02:06:06.348Z,94.40
2022-08-21T02:08:33.603Z,93.90
2022-08-21T02:11:01.128Z,93.90
2022-08-21T02:13:27.861Z,94.50
2022-08-21T02:20:55.957Z,93.60
2022-08-21T02:23:26.804Z,85.90
2022-08-21T02:25:55.682Z,94.00
2022-08-21T02:33:17.732Z,91.90
2022-08-21T02:35:46.168Z,88.80
2022-08-21T02:38:16.479Z,86.20
2022-08-21T02:40:48.035Z,94.60
2022-08-21T02:43:16.491Z,87.40
2022-08-21T02:45:45.058Z,86.50
2022-08-21T02:48:15.491Z,86.40
2022-08-21T02:50:55.411Z,86.50
2022-08-21T02:53:22.803Z,94.20
2022-08-21T02:55:51.043Z,86.70
2022-08-21T02:58:23.119Z,92.90
2022-08-21T03:00:50.791Z,93.40
2022-08-21T03:03:17.524Z,94.10
2022-08-21T03:05:44.993Z,86.40
2022-08-21T03:08:13.645Z,86.70
2022-08-21T03:10:46.119Z,86.80
2022-08-21T03:13:13.596Z,94.80
2022-08-21T03:15:40.996Z,94.70
2022-08-21T03:20:36.503Z,94.70
2022-08-21T03:28:13.263Z,94.60
2022-08-21T03:30:49.822Z,85.20
2022-08-21T03:33:16.797Z,94.50
2022-08-21T03:35:53.896Z,87.10
2022-08-21T03:38:25.850Z,91.00
2022-08-21T03:43:21.049Z,95.20
2022-08-21T03:45:47.909Z,95.20
2022-08-21T03:50:44.179Z,94.70
2022-08-21T03:53:17.392Z,89.30
2022-08-21T03:55:50.105Z,91.60
2022-08-21T03:58:19.411Z,87.60
2022-08-21T04:00:49.003Z,91.60
2022-08-21T04:03:16.691Z,95.10
2022-08-21T04:05:43.745Z,89.40
2022-08-21T04:10:40.104Z,95.10
2022-08-21T04:13:08.804Z,87.90
2022-08-21T04:15:35.916Z,88.30
2022-08-21T04:22:57.322Z,95.40
2022-08-21T04:25:26.330Z,87.50
2022-08-21T04:30:20.705Z,87.20
2022-08-21T04:35:19.836Z,88.30
2022-08-21T04:37:46.962Z,87.70
2022-08-21T04:40:16.581Z,95.60
2022-08-21T04:42:47.033Z,90.10
2022-08-21T04:45:20.812Z,91.50
2022-08-21T04:47:53.113Z,93.70
2022-08-21T04:50:25.512Z,89.40
2022-08-21T04:53:06.136Z,88.70
2022-08-21T04:55:33.335Z,95.40
2022-08-21T04:58:01.065Z,88.90
2022-08-21T05:05:30.045Z,96.00
2022-08-21T05:07:59.981Z,94.00
2022-08-21T05:15:21.739Z,91.10
2022-08-21T05:20:22.150Z,95.40
2022-08-21T05:32:38.859Z,96.00
2022-08-21T05:35:07.930Z,95.60
2022-08-21T05:37:35.331Z,95.70
2022-08-21T05:45:41.798Z,95.60
2022-08-21T05:48:22.759Z,95.50
2022-08-21T05:50:51.621Z,89.20
2022-08-21T05:53:20.330Z,95.40
2022-08-21T05:58:17.807Z,88.70
2022-08-21T06:00:46.529Z,95.40
2022-08-21T06:03:20.800Z,95.70
2022-08-21T06:08:17.041Z,88.30
2022-08-21T06:10:44.616Z,91.90
2022-08-21T06:15:40.368Z,88.40
2022-08-21T06:23:02.194Z,90.40
2022-08-21T06:25:30.005Z,87.50
2022-08-21T06:28:09.807Z,84.30
2022-08-21T06:30:37.956Z,92.90
2022-08-21T06:33:04.718Z,85.60
2022-08-21T06:37:58.943Z,85.10
2022-08-21T06:40:27.543Z,71.90
2022-08-21T06:42:58.603Z,75.10
2022-08-21T06:45:26.180Z,67.30
2022-08-21T06:47:55.051Z,69.20
2022-08-21T06:50:21.753Z,76.60
2022-08-21T06:55:22.410Z,75.60
2022-08-21T07:00:19.761Z,72.70
2022-08-21T07:02:46.448Z,73.10
2022-08-21T07:05:18.267Z,71.70
2022-08-21T07:07:46.498Z,70.90
2022-08-21T07:12:50.765Z,68.10
2022-08-21T07:15:19.599Z,68.50
2022-08-21T07:17:46.437Z,65.60
2022-08-21T07:20:13.821Z,65.00
2022-08-21T07:22:41.747Z,51.10
2022-08-21T07:25:09.412Z,55.30
2022-08-21T07:27:36.212Z,63.30
2022-08-21T07:30:04.268Z,49.30
2022-08-21T07:32:31.000Z,61.50
2022-08-21T07:34:57.766Z,60.60
2022-08-21T07:37:24.681Z,60.40
2022-08-21T07:39:52.407Z,59.30
2022-08-21T07:42:19.144Z,58.00
2022-08-21T07:44:45.864Z,56.80
2022-08-21T07:47:12.828Z,56.60
2022-08-21T07:54:34.686Z,54.20
2022-08-21T07:57:02.178Z,54.80
2022-08-21T07:59:29.423Z,55.00
2022-08-21T08:04:26.478Z,54.70
2022-08-21T08:06:53.728Z,54.60
2022-08-21T08:09:20.706Z,55.50
2022-08-21T08:11:47.394Z,54.70
2022-08-21T08:14:14.161Z,51.80
2022-08-21T08:16:40.841Z,52.50
2022-08-21T08:19:07.594Z,53.30
2022-08-21T08:21:35.106Z,48.30
2022-08-21T08:24:18.441Z,50.80
2022-08-21T08:26:46.776Z,50.10
2022-08-21T08:29:20.930Z,49.80
2022-08-21T08:39:26.594Z,48.80
2022-08-21T08:42:33.365Z,33.80
2022-08-21T08:45:09.058Z,50.90
2022-08-21T08:47:39.244Z,53.00
2022-08-21T08:50:11.741Z,53.10
2022-08-21T08:52:47.225Z,39.10
2022-08-21T08:55:17.170Z,41.20
2022-08-21T08:57:49.894Z,56.00
2022-08-21T09:00:21.246Z,53.00
2022-08-21T09:02:49.733Z,51.00
2022-08-21T09:05:45.925Z,48.30
2022-08-21T09:08:21.449Z,46.70
2022-08-21T09:11:11.272Z,45.40
2022-08-21T09:14:01.832Z,37.70
2022-08-21T09:16:40.451Z,29.70
2022-08-21T09:19:33.522Z,42.90
2022-08-21T09:22:08.929Z,29.70
2022-08-21T09:24:56.286Z,43.60
2022-08-21T09:27:23.233Z,39.10
2022-08-21T09:29:53.079Z,40.80
2022-08-21T09:32:37.078Z,41.00
2022-08-21T09:35:07.561Z,27.00
2022-08-21T09:37:47.627Z,42.30
2022-08-21T09:40:44.701Z,43.60
2022-08-21T09:43:20.295Z,45.20
2022-08-21T09:45:49.478Z,46.20
2022-08-21T09:48:26.950Z,48.40
2022-08-21T09:51:16.760Z,50.90
2022-08-21T09:53:48.664Z,47.80
2022-08-21T09:56:42.620Z,54.30
2022-08-21T09:59:18.887Z,56.20
2022-08-21T10:01:51.178Z,44.50
2022-08-21T10:04:23.543Z,60.30
2022-08-21T10:06:50.627Z,57.50
2022-08-21T10:09:21.623Z,40.30
2022-08-21T10:12:11.025Z,55.80
2022-08-21T10:14:47.067Z,40.60
2022-08-21T10:17:21.615Z,42.60
2022-08-21T10:20:03.120Z,55.00
2022-08-21T10:22:47.199Z,48.90
2022-08-21T10:25:50.265Z,55.80
2022-08-21T10:28:36.285Z,53.90
2022-08-21T10:31:40.588Z,39.40
2022-08-21T10:34:38.432Z,53.00
2022-08-21T10:37:19.491Z,52.00
2022-08-21T10:39:55.336Z,51.50
2022-08-21T10:42:28.552Z,53.90
2022-08-21T10:45:14.804Z,50.90
2022-08-21T10:48:16.870Z,46.70
2022-08-21T10:50:56.606Z,45.80
2022-08-21T10:53:42.484Z,30.80
2022-08-21T10:56:21.753Z,48.90
2022-08-21T10:59:26.714Z,48.90
2022-08-21T11:01:59.289Z,50.20
2022-08-21T11:04:49.230Z,51.70
2022-08-21T11:07:30.200Z,53.40
2022-08-21T11:10:16.058Z,49.50
2022-08-21T11:13:01.543Z,44.60
2022-08-21T11:18:24.601Z,54.50
2022-08-21T11:21:20.821Z,49.00
2022-08-21T11:24:05.655Z,39.60
2022-08-21T11:26:51.251Z,58.00
2022-08-21T11:29:35.352Z,57.60
2022-08-21T11:32:15.181Z,55.30
2022-08-21T11:35:00.746Z,52.20
2022-08-21T11:37:48.942Z,47.20
2022-08-21T11:40:45.387Z,45.80
2022-08-21T11:43:33.207Z,42.50
2022-08-21T11:46:25.872Z,44.60
2022-08-21T11:48:55.331Z,45.70
2022-08-21T11:51:33.816Z,43.80
2022-08-21T11:54:25.261Z,28.00
2022-08-21T11:57:01.236Z,39.10
2022-08-21T11:59:41.549Z,27.90
2022-08-21T12:02:15.803Z,40.00
2022-08-21T12:04:54.020Z,27.10
2022-08-21T12:07:42.464Z,25.80
2022-08-21T12:10:15.769Z,24.50
2022-08-21T12:12:45.059Z,34.40
2022-08-21T12:15:20.891Z,24.00
2022-08-21T12:18:01.538Z,31.80
2022-08-21T12:20:45.161Z,31.80
2022-08-21T12:23:29.461Z,22.60
2022-08-21T12:26:30.640Z,22.30
2022-08-21T12:29:21.580Z,22.20
2022-08-21T12:32:01.022Z,23.00
2022-08-21T12:34:37.498Z,24.40
2022-08-21T12:37:18.634Z,26.60
2022-08-21T12:39:48.706Z,39.30
2022-08-21T12:42:34.601Z,40.90
2022-08-21T12:45:11.197Z,41.00
2022-08-21T12:47:51.962Z,40.40
2022-08-21T12:50:25.608Z,40.50
2022-08-21T12:53:05.172Z,27.50
2022-08-21T12:55:45.363Z,40.50
2022-08-21T12:58:25.592Z,42.50
2022-08-21T13:00:56.825Z,45.00
2022-08-21T13:03:24.376Z,45.10
2022-08-21T13:05:52.832Z,42.60
2022-08-21T13:08:21.896Z,41.20
2022-08-21T13:10:57.237Z,29.60
2022-08-21T13:13:28.319Z,29.10
2022-08-21T13:16:05.517Z,37.70
2022-08-21T13:18:35.907Z,43.10
2022-08-21T13:21:11.884Z,43.50
2022-08-21T13:23:39.824Z,33.50
2022-08-21T13:26:18.936Z,34.10
2022-08-21T13:28:48.290Z,46.00
2022-08-21T13:31:20.717Z,33.90
2022-08-21T13:33:49.439Z,44.70
2022-08-21T13:36:27.611Z,44.90
2022-08-21T13:38:55.744Z,45.50
2022-08-21T13:41:28.253Z,44.80
2022-08-21T13:44:04.520Z,44.90
2022-08-21T13:46:35.438Z,45.90
2022-08-21T13:49:04.040Z,46.60
2022-08-21T13:51:32.212Z,32.20
2022-08-21T13:53:59.592Z,47.80
2022-08-21T13:56:33.665Z,45.10
2022-08-21T13:59:02.621Z,47.90
2022-08-21T14:01:35.392Z,32.30
2022-08-21T14:04:20.300Z,30.50
2022-08-21T14:06:47.237Z,45.80
2022-08-21T14:09:27.928Z,31.80
2022-08-21T14:11:57.112Z,46.30
2022-08-21T14:14:31.627Z,47.40
2022-08-21T14:17:23.328Z,46.90
2022-08-21T14:19:51.399Z,49.60
2022-08-21T14:22:33.470Z,33.20
2022-08-21T14:25:06.609Z,34.20
2022-08-21T14:27:35.976Z,49.70
2022-08-21T14:30:10.798Z,37.20
2022-08-21T14:32:44.894Z,37.10
2022-08-21T14:35:13.473Z,49.70
2022-08-21T14:37:43.589Z,50.00
2022-08-21T14:40:12.070Z,36.70
2022-08-21T14:42:43.183Z,51.30
2022-08-21T14:45:27.896Z,52.10
2022-08-21T14:47:55.619Z,52.20
2022-08-21T14:50:22.792Z,53.90
2022-08-21T14:55:19.020Z,38.70
2022-08-21T14:57:51.752Z,53.10
2022-08-21T15:00:23.848Z,53.10
2022-08-21T15:03:01.272Z,53.50
2022-08-21T15:05:32.865Z,53.50
2022-08-21T15:10:27.504Z,53.80
2022-08-21T15:20:15.680Z,55.40
2022-08-21T15:27:49.660Z,55.30
2022-08-21T15:30:16.556Z,56.00
2022-08-21T15:35:10.704Z,57.70
2022-08-21T15:40:07.192Z,55.20
2022-08-21T15:42:34.874Z,57.70
2022-08-21T15:45:02.040Z,57.70
2022-08-21T15:47:32.900Z,58.10
2022-08-21T15:49:59.784Z,57.50
2022-08-21T15:54:54.129Z,43.20
2022-08-21T15:57:23.306Z,42.20
2022-08-21T15:59:58.580Z,59.90
2022-08-21T16:02:31.474Z,42.70
2022-08-21T16:04:59.208Z,58.60
2022-08-21T16:09:53.731Z,58.60
2022-08-21T16:12:31.734Z,43.20
2022-08-21T16:15:00.441Z,45.40
2022-08-21T16:17:33.503Z,59.30
2022-08-21T16:20:02.334Z,45.20
2022-08-21T16:25:12.303Z,59.70
2022-08-21T16:27:40.370Z,60.60
2022-08-21T16:30:07.967Z,46.90
2022-08-21T16:32:35.369Z,55.90
2022-08-21T16:35:03.613Z,56.70
2022-08-21T16:39:57.989Z,59.80
2022-08-21T16:42:26.652Z,60.30
2022-08-21T16:44:55.216Z,59.80
2022-08-21T16:49:54.855Z,51.90
2022-08-21T16:52:21.560Z,61.10
2022-08-21T16:54:48.271Z,61.30
2022-08-21T16:57:15.159Z,61.80
2022-08-21T17:02:29.735Z,60.50
2022-08-21T17:09:53.152Z,61.60
2022-08-21T17:12:20.098Z,60.50
2022-08-21T17:14:47.974Z,60.70
2022-08-21T17:17:14.949Z,47.60
2022-08-21T17:19:42.246Z,61.90
2022-08-21T17:22:09.827Z,61.80
2022-08-21T17:24:37.334Z,61.60
2022-08-21T17:27:05.582Z,61.90
2022-08-21T17:29:37.026Z,48.60
2022-08-21T17:32:07.996Z,64.00
2022-08-21T17:37:01.752Z,63.40
2022-08-21T17:39:28.506Z,65.00
2022-08-21T17:41:58.207Z,64.30
2022-08-21T17:49:20.500Z,63.80
2022-08-21T17:56:43.028Z,66.70
2022-08-21T17:59:11.384Z,53.40
2022-08-21T18:01:42.492Z,66.60
2022-08-21T18:04:11.115Z,54.00
2022-08-21T18:06:37.995Z,67.20
2022-08-21T18:09:05.739Z,60.80
2022-08-21T18:11:32.731Z,68.80
2022-08-21T18:14:07.149Z,69.30
2022-08-21T18:16:37.741Z,55.10
2022-08-21T18:19:09.008Z,67.90
2022-08-21T18:24:03.734Z,65.80
2022-08-21T18:26:38.355Z,70.00
2022-08-21T18:29:07.653Z,70.10
2022-08-21T18:31:37.243Z,61.00
2022-08-21T18:34:11.337Z,58.00
2022-08-21T18:36:39.136Z,72.20
2022-08-21T18:39:34.403Z,72.40
2022-08-21T18:41:54.634Z,71.40
2022-08-21T18:44:23.326Z,72.00
2022-08-21T18:46:56.071Z,59.80
2022-08-21T18:49:22.731Z,72.60
2022-08-21T18:54:17.670Z,74.60
2022-08-21T18:56:45.007Z,60.10
2022-08-21T18:59:13.743Z,75.00
2022-08-21T19:01:42.512Z,74.30
2022-08-21T19:04:21.304Z,62.00
2022-08-21T19:06:56.767Z,66.40
2022-08-21T19:09:23.395Z,75.70
2022-08-21T19:14:37.210Z,63.70
2022-08-21T19:21:59.801Z,76.90
2022-08-21T19:26:55.751Z,78.90
2022-08-21T19:32:05.688Z,65.80
2022-08-21T19:34:35.331Z,65.50
2022-08-21T19:37:02.357Z,78.10
2022-08-21T19:41:59.419Z,78.60
2022-08-21T19:44:29.394Z,66.50
2022-08-21T19:46:57.839Z,80.30
2022-08-21T19:49:28.735Z,67.10
2022-08-21T19:54:32.922Z,67.80
2022-08-21T19:57:06.602Z,68.00
2022-08-21T19:59:35.392Z,67.30
2022-08-21T20:02:02.548Z,80.90
2022-08-21T20:06:56.437Z,81.50
2022-08-21T20:11:56.285Z,83.10
2022-08-21T20:14:26.570Z,73.10
2022-08-21T20:17:08.126Z,83.50
2022-08-21T20:19:38.841Z,69.70
2022-08-21T20:22:06.513Z,83.90
2022-08-21T20:34:45.830Z,84.90
2022-08-21T20:37:22.366Z,84.50
2022-08-21T20:42:57.585Z,84.50
2022-08-21T20:45:31.051Z,71.50
2022-08-21T20:48:28.586Z,82.10
2022-08-21T20:51:21.842Z,85.50
2022-08-21T20:54:21.897Z,84.90
2022-08-21T20:57:04.665Z,84.90
2022-08-21T20:59:49.994Z,80.90
2022-08-21T21:04:51.507Z,72.40
2022-08-21T21:07:47.320Z,86.60
2022-08-21T21:10:34.087Z,85.40
2022-08-21T21:13:22.931Z,86.50
2022-08-21T21:15:54.799Z,73.30
2022-08-21T21:18:42.521Z,86.00
2022-08-21T21:21:51.701Z,86.00
2022-08-21T21:26:57.157Z,71.90
2022-08-21T21:29:29.889Z,86.40
2022-08-21T21:31:57.065Z,87.70
2022-08-21T21:34:26.674Z,86.40
2022-08-21T21:37:14.475Z,87.60
2022-08-21T21:39:50.143Z,88.10
2022-08-21T21:45:08.861Z,72.90
2022-08-21T21:47:41.323Z,87.80
2022-08-21T21:50:26.481Z,81.60
2022-08-21T21:55:46.551Z,88.60
2022-08-21T21:58:37.387Z,73.30
2022-08-21T22:01:18.859Z,88.60
2022-08-21T22:03:59.527Z,74.90
2022-08-21T22:06:52.556Z,88.00
2022-08-21T22:09:45.589Z,73.40
2022-08-21T22:12:24.401Z,87.70
2022-08-21T22:17:37.720Z,89.40
2022-08-21T22:20:15.528Z,89.50
2022-08-21T22:22:43.841Z,75.40
2022-08-21T22:25:20.940Z,80.50
2022-08-21T22:27:51.508Z,77.30
2022-08-21T22:30:41.674Z,88.70
2022-08-21T22:33:19.979Z,74.30
2022-08-21T22:35:51.725Z,90.00
2022-08-21T22:38:39.471Z,76.30
2022-08-21T22:41:19.392Z,90.10
2022-08-21T22:43:54.819Z,89.10
2022-08-21T22:46:50.089Z,89.30
2022-08-21T22:49:38.747Z,76.60
2022-08-21T22:52:24.971Z,90.20
2022-08-21T22:54:58.288Z,76.80
2022-08-21T22:57:34.998Z,90.10
2022-08-21T23:00:33.860Z,89.30
2022-08-21T23:03:02.960Z,77.30
2022-08-21T23:08:39.077Z,89.90
2022-08-21T23:11:20.897Z,77.40
2022-08-21T23:13:52.352Z,89.40
2022-08-21T23:16:47.117Z,75.20
2022-08-21T23:19:44.560Z,75.20
2022-08-21T23:22:36.158Z,90.10
2022-08-21T23:25:12.567Z,76.80
2022-08-21T23:28:03.840Z,75.30
2022-08-21T23:30:41.815Z,81.60
2022-08-21T23:33:15.631Z,89.60
2022-08-21T23:36:04.120Z,90.30
2022-08-21T23:38:55.600Z,90.60
2022-08-21T23:42:05.843Z,89.40
2022-08-21T23:47:22.852Z,75.80
2022-08-21T23:49:54.175Z,77.10
2022-08-21T23:52:49.491Z,76.00
2022-08-21T23:55:41.458Z,77.40
